Time;durP1;ratioP1;P1;durP2;ratioP2;P2;SDS_P1;SDS_P2;PMS_P1;PMS_P2;Temp;Humidity;BMP_temperature;BMP_pressure;BME280_temperature;BME280_humidity;BME280_pressure;Samples;Min_cycle;Max_cycle;Signal;HPM_P1;HPM_P2
2023/01/10 00:08:05;;;;;;;4.30;3.33;;;;;;;21.25;56.08;98955.81;20816658;28;20085;-74
2023/01/10 00:18:06;;;;;;;4.00;3.47;;;;;;;21.24;56.33;98956.81;20812213;28;20045;-75
2023/01/10 00:28:19;;;;;;;6.00;3.40;;;;;;;21.21;56.68;98957.13;20821640;28;20118;-81
2023/01/10 00:38:20;;;;;;;3.83;3.40;;;;;;;21.22;56.62;98933.25;20837891;28;20041;-75
2023/01/10 00:48:20;;;;;;;4.10;2.75;;;;;;;21.20;56.09;98943.16;20850592;28;20411;-74
2023/01/10 00:58:21;;;;;;;3.92;3.10;;;;;;;21.19;56.35;98953.81;20824892;28;20049;-79
2023/01/10 01:08:22;;;;;;;4.18;3.53;;;;;;;21.19;56.13;98951.16;20831848;28;20053;-74
2023/01/10 01:18:22;;;;;;;3.97;2.92;;;;;;;21.16;56.32;98938.34;20846563;28;20043;-80
2023/01/10 01:28:23;;;;;;;3.42;2.70;;;;;;;21.15;55.99;98936.69;20824304;28;20057;-75
2023/01/10 01:38:24;;;;;;;4.47;3.47;;;;;;;21.14;55.97;98935.03;20851550;28;20049;-75
2023/01/10 01:48:38;;;;;;;3.28;2.72;;;;;;;21.13;56.18;98936.00;20852430;28;20428;-74
2023/01/10 01:58:47;;;;;;;3.00;2.70;;;;;;;21.13;56.42;98944.72;20834694;28;20045;-75
2023/01/10 02:09:03;;;;;;;3.50;2.85;;;;;;;21.11;56.19;98960.66;20838704;28;20427;-76
2023/01/10 02:19:16;;;;;;;4.60;2.80;;;;;;;21.09;56.15;98965.28;20838661;28;20063;-75
2023/01/10 02:29:26;;;;;;;2.65;2.42;;;;;;;21.09;55.91;98953.91;20823507;28;20171;-75
2023/01/10 02:39:36;;;;;;;3.28;2.45;;;;;;;21.07;56.18;98947.97;20834527;28;20052;-76
2023/01/10 02:49:45;;;;;;;2.65;2.25;;;;;;;21.06;56.45;98954.22;20840658;28;20100;-75
2023/01/10 03:00:16;;;;;;;2.70;2.45;;;;;;;21.05;56.39;98963.09;20826383;28;20041;-75
2023/01/10 03:10:31;;;;;;;2.88;2.47;;;;;;;21.05;56.22;98970.97;20811623;28;20045;-74
2023/01/10 03:20:34;;;;;;;2.90;2.40;;;;;;;21.03;56.13;98981.66;20834857;28;20106;-75
2023/01/10 03:30:37;;;;;;;3.90;2.78;;;;;;;21.02;56.09;98974.75;20833285;28;20041;-75
2023/01/10 03:40:56;;;;;;;3.33;2.50;;;;;;;21.02;56.25;98982.66;20832950;28;20045;-81
2023/01/10 03:50:59;;;;;;;2.55;2.35;;;;;;;21.01;56.04;98983.63;20804292;28;20071;-75
2023/01/10 04:00:59;;;;;;;2.58;2.20;;;;;;;21.00;56.20;99004.84;20832349;28;20037;-77
2023/01/10 04:11:00;;;;;;;2.40;2.20;;;;;;;20.99;56.27;99019.78;20815439;28;20067;-75
2023/01/10 04:21:01;;;;;;;2.83;2.10;;;;;;;20.97;55.87;98987.53;20796347;28;20091;-75
2023/01/10 04:31:01;;;;;;;2.22;2.00;;;;;;;20.96;56.33;99001.69;20822002;28;20044;-80
2023/01/10 04:41:03;;;;;;;2.38;2.10;;;;;;;20.95;55.86;99000.00;20813469;28;20041;-75
2023/01/10 04:51:03;;;;;;;2.00;1.80;;;;;;;20.93;56.04;99023.00;20823211;28;20049;-76
2023/01/10 05:01:09;;;;;;;2.60;2.00;;;;;;;20.96;55.95;99043.78;20799453;28;20041;-79
2023/01/10 05:11:10;;;;;;;1.77;1.67;;;;;;;20.94;56.38;99051.81;20816853;28;20048;-79
2023/01/10 05:21:12;;;;;;;2.65;2.08;;;;;;;21.01;56.87;99067.84;20857456;28;20139;-75
2023/01/10 05:31:16;;;;;;;6.23;2.17;;;;;;;21.10;56.70;99087.16;20814566;28;20073;-87
2023/01/10 05:41:17;;;;;;;8.30;2.67;;;;;;;21.17;57.16;99075.06;20804314;28;20033;-78
2023/01/10 05:51:17;;;;;;;6.75;2.90;;;;;;;21.24;57.25;99080.56;20822868;28;20052;-74
2023/01/10 06:01:19;;;;;;;8.23;2.50;;;;;;;21.28;56.65;99101.13;20804110;28;20056;-74
2023/01/10 06:11:27;;;;;;;12.65;2.58;;;;;;;21.29;55.12;99125.69;20834331;28;20987;-78
2023/01/10 06:21:28;;;;;;;12.48;2.40;;;;;;;21.35;56.29;99143.50;20848306;28;20523;-72
2023/01/10 06:31:28;;;;;;;10.48;2.50;;;;;;;21.41;56.37;99147.31;20843458;28;20052;-73
2023/01/10 06:41:29;;;;;;;6.93;2.63;;;;;;;21.47;56.46;99161.72;20832106;28;20575;-72
2023/01/10 06:51:29;;;;;;;4.18;2.00;;;;;;;21.52;56.36;99169.97;20847161;28;20570;-73
2023/01/10 07:01:30;;;;;;;3.47;1.60;;;;;;;21.57;56.25;99186.22;20828976;28;20049;-78
2023/01/10 07:11:32;;;;;;;6.95;2.45;;;;;;;21.59;56.11;99203.53;20841402;28;20051;-78
2023/01/10 07:21:32;;;;;;;4.55;1.77;;;;;;;21.59;54.58;99234.28;20852304;28;20527;-76
2023/01/10 07:31:33;;;;;;;6.70;2.10;;;;;;;21.66;55.38;99237.97;20848341;28;20040;-80
2023/01/10 07:41:33;;;;;;;5.15;1.92;;;;;;;21.70;55.51;99256.94;20849954;28;20376;-82
2023/01/10 07:51:33;;;;;;;3.45;1.77;;;;;;;21.72;55.43;99287.44;20844032;28;20032;-83
2023/01/10 08:01:34;;;;;;;3.05;2.00;;;;;;;21.74;55.33;99303.94;20841989;28;20064;-82
2023/01/10 08:11:34;;;;;;;4.95;2.00;;;;;;;21.75;55.00;99329.31;20853267;28;20084;-82
2023/01/10 08:21:35;;;;;;;3.13;1.98;;;;;;;21.77;54.91;99354.69;20842046;28;20440;-85
2023/01/10 08:31:35;;;;;;;5.63;1.90;;;;;;;21.79;54.81;99376.44;20853354;28;20059;-82
2023/01/10 08:41:38;;;;;;;2.28;1.48;;;;;;;21.80;54.87;99391.25;20862669;28;20041;-83
2023/01/10 08:51:39;;;;;;;3.85;1.70;;;;;;;21.81;54.78;99412.19;20852200;28;20052;-82
2023/01/10 09:01:39;;;;;;;3.25;1.70;;;;;;;21.83;54.64;99441.88;20853314;28;20523;-81
2023/01/10 09:11:39;;;;;;;5.97;1.83;;;;;;;21.79;54.52;99461.59;20869827;28;20057;-83
2023/01/10 09:21:40;;;;;;;3.50;1.40;;;;;;;21.80;54.36;99496.66;20860187;28;20056;-82
2023/01/10 09:31:40;;;;;;;2.88;1.23;;;;;;;21.80;54.29;99502.78;20869813;28;20195;-82
2023/01/10 09:41:54;;;;;;;3.13;1.40;;;;;;;21.80;54.32;99528.28;20842501;28;20097;-81
2023/01/10 09:51:56;;;;;;;1.98;1.10;;;;;;;21.78;54.03;99538.16;20859998;28;20041;-80
2023/01/10 10:01:59;;;;;;;;;;;;;;;21.77;54.18;99561.03;20867110;28;20067;-81
2023/01/10 10:12:18;;;;;;;1.88;1.30;;;;;;;21.74;53.82;99562.16;20874042;28;19933;-82
2023/01/10 10:22:19;;;;;;;1.90;1.10;;;;;;;;;;20865241;28;20044;-81
2023/01/10 10:32:28;;;;;;;1.05;0.95;;;;;;;21.72;53.86;99581.72;20868578;28;20049;-81
2023/01/10 10:42:35;;;;;;;2.20;1.00;;;;;;;21.69;53.56;99603.91;20847913;28;20029;-81
2023/01/10 10:52:36;;;;;;;1.70;1.00;;;;;;;21.63;52.70;99624.72;20862355;28;20041;-81
2023/01/10 11:02:56;;;;;;;2.00;0.90;;;;;;;21.65;53.40;99633.31;20891072;28;20044;-83
2023/01/10 11:13:00;;;;;;;1.67;1.00;;;;;;;21.62;53.39;99660.78;20856142;28;20048;-82
2023/01/10 11:23:01;;;;;;;1.50;0.80;;;;;;;21.63;53.34;99680.88;20864720;28;20045;-83
2023/01/10 11:33:06;;;;;;;2.55;0.93;;;;;;;21.66;53.05;99683.22;20868631;28;20045;-81
2023/01/10 11:43:40;;;;;;;3.10;1.00;;;;;;;21.66;52.56;99683.22;20888747;28;20045;-80
2023/01/10 11:53:42;;;;;;;1.02;0.77;;;;;;;21.68;52.52;99704.16;20850510;28;20099;-80
2023/01/10 12:03:45;;;;;;;1.92;0.60;;;;;;;21.68;52.40;99717.34;20864902;28;20060;-79
2023/01/10 12:13:51;;;;;;;2.80;0.70;;;;;;;21.67;52.36;99729.69;20896340;28;20098;-78
2023/01/10 12:23:53;;;;;;;4.65;0.70;;;;;;;21.66;52.06;99741.19;20868464;28;20045;-79
2023/01/10 12:34:01;;;;;;;3.60;0.67;;;;;;;21.64;52.01;99758.09;20878247;28;20182;-79
2023/01/10 12:44:10;;;;;;;1.33;0.60;;;;;;;21.64;52.07;99773.91;20875436;28;20063;-79
2023/01/10 12:54:20;;;;;;;1.17;0.70;;;;;;;21.63;52.40;99802.06;20845157;28;20060;-79
2023/01/10 13:04:23;;;;;;;0.63;0.60;;;;;;;21.63;52.43;99799.44;20853153;28;20136;-80
2023/01/10 13:14:40;;;;;;;0.82;0.57;;;;;;;21.64;52.05;99827.47;20860477;28;20055;-79
2023/01/10 13:24:41;;;;;;;1.08;0.50;;;;;;;21.63;52.22;99838.13;20878784;28;20045;-80
2023/01/10 13:34:41;;;;;;;3.53;0.57;;;;;;;21.60;52.27;99857.66;20876907;28;20076;-75
2023/01/10 13:45:01;;;;;;;2.17;0.73;;;;;;;21.58;52.24;99883.28;20873238;28;20044;-80
2023/01/10 13:55:21;;;;;;;0.50;0.40;;;;;;;21.56;51.92;99901.88;20871395;28;20507;-75
2023/01/10 14:05:21;;;;;;;1.92;0.77;;;;;;;21.57;51.15;99911.47;20851403;28;20148;-79
2023/01/10 14:15:30;;;;;;;4.93;0.70;;;;;;;21.62;51.41;99921.59;20871062;28;20053;-81
2023/01/10 14:25:34;;;;;;;0.68;0.50;;;;;;;21.57;51.66;99945.72;20878141;28;20045;-83
2023/01/10 14:35:42;;;;;;;2.03;0.85;;;;;;;21.57;51.86;99958.06;20859260;28;20041;-83
2023/01/10 14:45:58;;;;;;;1.48;0.60;;;;;;;21.55;51.59;99973.13;20863039;28;20049;-81
2023/01/10 14:55:59;;;;;;;0.82;0.60;;;;;;;21.55;51.89;99994.19;20844197;28;20093;-81
2023/01/10 15:06:00;;;;;;;1.13;0.50;;;;;;;21.57;51.64;100008.94;20831354;28;20032;-82
2023/01/10 15:16:20;;;;;;;1.25;0.50;;;;;;;21.57;51.90;100016.84;20966100;27;20451;-81
2023/01/10 15:26:28;;;;;;;0.75;0.47;;;;;;;21.56;51.63;100032.75;20853641;28;20048;-79
2023/01/10 15:36:28;;;;;;;1.60;0.60;;;;;;;21.56;51.82;100057.31;20808209;28;20132;-79
2023/01/10 15:46:29;;;;;;;1.67;0.65;;;;;;;21.56;52.42;100069.63;20865183;28;20044;-79
2023/01/10 15:56:36;;;;;;;1.08;0.60;;;;;;;21.55;52.03;100091.66;20944103;28;20126;-78
2023/01/10 16:06:37;;;;;;;1.58;1.30;;;;;;;20.71;41.50;100087.06;20937833;28;20052;-80
2023/01/10 16:16:37;;;;;;;1.45;0.85;;;;;;;21.08;46.57;100110.41;20962536;27;20044;-78
2023/01/10 16:26:38;;;;;;;1.05;0.88;;;;;;;21.18;48.50;100118.41;20894957;28;20503;-73
2023/01/10 16:36:40;;;;;;;1.55;0.82;;;;;;;21.23;49.47;100126.78;20880720;28;20032;-74
2023/01/10 16:46:40;;;;;;;1.13;0.80;;;;;;;21.21;50.23;100140.06;20883894;28;20041;-73
2023/01/10 16:56:41;;;;;;;1.52;1.10;;;;;;;21.26;51.05;100158.13;20888980;28;20079;-75
2023/01/10 17:06:42;;;;;;;5.07;1.10;;;;;;;21.28;51.64;100170.19;20876523;28;20087;-77
2023/01/10 17:16:42;;;;;;;4.90;1.10;;;;;;;21.34;52.48;100175.94;20894638;28;20091;-73
2023/01/10 17:26:43;;;;;;;6.80;3.10;;;;;;;21.36;52.97;100192.44;20891922;28;20045;-79
2023/01/10 17:36:43;;;;;;;8.05;3.58;;;;;;;21.37;52.89;100199.38;20910942;28;20041;-79
2023/01/10 17:46:45;;;;;;;6.10;2.70;;;;;;;21.38;52.95;100225.59;20911003;28;20059;-79
2023/01/10 17:56:45;;;;;;;3.90;2.60;;;;;;;21.36;52.59;100224.03;20898991;28;20037;-73
2023/01/10 18:06:46;;;;;;;5.78;2.83;;;;;;;21.36;53.12;100235.44;20896270;28;20060;-74
2023/01/10 18:16:47;;;;;;;7.20;2.40;;;;;;;21.39;53.45;100247.53;20900391;28;20064;-73
2023/01/10 18:26:48;;;;;;;7.50;2.60;;;;;;;21.38;53.77;100256.38;20900920;28;20492;-77
2023/01/10 18:36:49;;;;;;;5.85;2.60;;;;;;;21.37;53.73;100258.19;20916335;28;20478;-76
2023/01/10 18:46:50;;;;;;;3.65;2.42;;;;;;;21.37;53.85;100276.63;20902794;28;20047;-74
2023/01/10 18:56:51;;;;;;;6.35;2.47;;;;;;;21.36;53.69;100274.94;20917673;28;20028;-75
2023/01/10 19:06:52;;;;;;;4.30;2.40;;;;;;;21.35;53.72;100270.63;20914956;28;20045;-73
2023/01/10 19:16:52;;;;;;;4.15;2.38;;;;;;;21.36;53.75;100264.41;20908698;28;20039;-74
2023/01/10 19:26:54;;;;;;;6.28;1.73;;;;;;;21.35;53.51;100273.28;20900655;28;20127;-74
2023/01/10 19:36:54;;;;;;;3.35;1.98;;;;;;;21.38;54.06;100290.63;20898898;28;20166;-75
2023/01/10 19:46:55;;;;;;;5.75;2.28;;;;;;;21.39;53.97;100297.56;20879701;28;20065;-73
2023/01/10 19:56:56;;;;;;;6.30;1.90;;;;;;;21.38;53.98;100312.50;20883468;28;20098;-75
2023/01/10 20:06:56;;;;;;;7.15;2.20;;;;;;;21.37;53.72;100318.78;20915756;28;20297;-80
2023/01/10 20:16:57;;;;;;;6.70;2.30;;;;;;;21.32;53.17;100318.28;20890995;28;20941;-78
2023/01/10 20:26:59;;;;;;;6.87;1.83;;;;;;;21.31;53.62;100324.50;20928697;28;20045;-74
2023/01/10 20:37:01;;;;;;;6.03;1.93;;;;;;;21.31;53.79;100332.41;20916899;28;20316;-75
2023/01/10 20:47:02;;;;;;;4.63;1.67;;;;;;;21.31;53.65;100345.56;20923986;28;20029;-75
2023/01/10 20:57:02;;;;;;;2.60;1.60;;;;;;;21.29;53.58;100347.50;20911412;28;20084;-76
2023/01/10 21:07:04;;;;;;;3.22;1.70;;;;;;;21.28;53.76;100351.91;20914675;28;20895;-74
2023/01/10 21:17:04;;;;;;;3.10;1.67;;;;;;;21.28;54.37;100351.91;20916534;28;20028;-75
2023/01/10 21:27:05;;;;;;;2.30;1.48;;;;;;;21.27;54.36;100362.56;20906915;28;20061;-75
2023/01/10 21:37:05;;;;;;;2.97;1.67;;;;;;;21.25;54.38;100354.81;20902458;28;20037;-75
2023/01/10 21:47:06;;;;;;;2.45;1.50;;;;;;;21.24;54.41;100358.38;20896497;28;20060;-75
2023/01/10 21:57:06;;;;;;;3.00;1.80;;;;;;;21.21;54.69;100342.00;20915159;28;20503;-77
2023/01/10 22:07:07;;;;;;;16.33;2.65;;;;;;;21.19;54.63;100343.91;20909773;28;20048;-75
2023/01/10 22:17:07;;;;;;;1.58;1.27;;;;;;;21.20;54.69;100350.84;20898663;28;20122;-75
2023/01/10 22:27:08;;;;;;;2.35;1.63;;;;;;;21.19;54.81;100360.56;20896504;28;20075;-74
2023/01/10 22:37:08;;;;;;;1.67;1.25;;;;;;;21.16;54.60;100355.50;20875893;28;20037;-75
2023/01/10 22:47:09;;;;;;;1.92;1.33;;;;;;;21.15;55.06;100353.00;20881193;28;20530;-77
2023/01/10 22:57:09;;;;;;;3.10;1.55;;;;;;;21.12;54.84;100351.44;20884773;28;20032;-80
2023/01/10 23:07:09;;;;;;;2.10;1.40;;;;;;;21.10;55.16;100375.28;20880839;28;20072;-75
2023/01/10 23:17:10;;;;;;;1.80;1.30;;;;;;;21.10;55.09;100371.78;20885162;28;20414;-75
2023/01/10 23:27:10;;;;;;;2.25;1.45;;;;;;;21.09;55.15;100372.72;20881895;28;20037;-74
2023/01/10 23:37:11;;;;;;;2.17;1.20;;;;;;;21.05;54.80;100380.03;20905000;28;20036;-74
2023/01/10 23:47:11;;;;;;;1.52;1.27;;;;;;;21.03;54.80;100374.06;20909879;28;20925;-77
2023/01/10 23:57:12;;;;;;;1.83;1.33;;;;;;;21.03;54.61;100370.56;20891623;28;20036;-74
